createdAt,value
2023-02-13T00:00:35.868Z,3.61
2023-02-13T00:03:02.980Z,3.53
2023-02-13T00:05:30.003Z,3.54
2023-02-13T00:07:57.415Z,3.52
2023-02-13T00:10:24.469Z,3.50
2023-02-13T00:12:51.431Z,3.49
2023-02-13T00:15:18.732Z,3.47
2023-02-13T00:17:45.696Z,3.43
2023-02-13T00:20:12.895Z,3.40
2023-02-13T00:22:40.311Z,3.39
2023-02-13T00:25:08.390Z,3.40
2023-02-13T00:27:35.504Z,3.41
2023-02-13T00:30:03.797Z,3.42
2023-02-13T00:32:31.340Z,3.43
2023-02-13T00:34:58.510Z,3.45
2023-02-13T00:37:26.267Z,3.47
2023-02-13T00:39:53.641Z,3.44
2023-02-13T00:42:24.285Z,3.38
2023-02-13T00:44:51.318Z,3.40
2023-02-13T00:47:18.445Z,3.38
2023-02-13T00:49:45.835Z,3.39
2023-02-13T00:52:13.178Z,3.34
2023-02-13T00:54:40.133Z,3.30
2023-02-13T00:57:07.135Z,3.27
2023-02-13T00:59:35.212Z,3.28
2023-02-13T01:02:02.302Z,3.25
2023-02-13T01:04:29.312Z,3.26
2023-02-13T01:06:57.486Z,3.28
2023-02-13T01:09:25.712Z,3.31
2023-02-13T01:11:52.810Z,3.34
2023-02-13T01:14:20.209Z,3.34
2023-02-13T01:16:49.252Z,3.33
2023-02-13T01:19:16.223Z,3.31
2023-02-13T01:21:44.373Z,3.31
2023-02-13T01:24:11.842Z,3.24
2023-02-13T01:26:38.996Z,3.22
2023-02-13T01:29:06.374Z,3.20
2023-02-13T01:31:33.821Z,3.22
2023-02-13T01:34:00.925Z,3.21
2023-02-13T01:36:27.911Z,3.20
2023-02-13T01:38:59.801Z,3.15
2023-02-13T01:41:28.251Z,3.11
2023-02-13T01:44:01.180Z,3.06
2023-02-13T01:46:34.212Z,3.04
2023-02-13T01:49:18.912Z,3.01
2023-02-13T01:51:47.470Z,2.98
2023-02-13T01:54:21.846Z,2.81
2023-02-13T01:57:03.624Z,2.83
2023-02-13T01:59:37.829Z,2.85
2023-02-13T02:02:05.051Z,2.82
2023-02-13T02:04:36.161Z,2.83
2023-02-13T02:07:14.507Z,2.82
2023-02-13T02:09:44.494Z,2.83
2023-02-13T02:12:29.530Z,2.86
2023-02-13T02:15:00.535Z,2.88
2023-02-13T02:17:31.713Z,2.81
2023-02-13T02:20:18.198Z,2.85
2023-02-13T02:23:17.509Z,2.84
2023-02-13T02:26:06.061Z,2.84
2023-02-13T02:29:07.990Z,2.89
2023-02-13T02:31:55.642Z,2.93
2023-02-13T02:34:46.421Z,2.94
2023-02-13T02:37:26.110Z,2.86
2023-02-13T02:40:15.482Z,2.74
2023-02-13T02:43:10.535Z,2.82
2023-02-13T02:45:54.705Z,2.81
2023-02-13T02:49:07.736Z,2.82
2023-02-13T02:51:48.648Z,2.73
2023-02-13T02:54:50.208Z,2.71
2023-02-13T02:57:24.969Z,2.68
2023-02-13T03:00:18.066Z,2.62
2023-02-13T03:03:03.780Z,2.59
2023-02-13T03:05:52.997Z,2.63
2023-02-13T03:08:40.046Z,2.57
2023-02-13T03:11:26.114Z,2.62
2023-02-13T03:13:54.375Z,2.65
2023-02-13T03:16:41.063Z,2.66
2023-02-13T03:19:36.624Z,2.65
2023-02-13T03:22:20.990Z,2.70
2023-02-13T03:25:04.201Z,2.73
2023-02-13T03:28:15.997Z,2.73
2023-02-13T03:31:24.442Z,2.72
2023-02-13T03:34:15.769Z,2.71
2023-02-13T03:37:13.055Z,2.75
2023-02-13T03:40:35.234Z,2.73
2023-02-13T03:43:11.074Z,2.71
2023-02-13T03:45:57.499Z,2.72
2023-02-13T03:48:50.388Z,2.68
2023-02-13T03:51:27.711Z,2.68
2023-02-13T03:54:01.504Z,2.66
2023-02-13T03:56:51.320Z,2.58
2023-02-13T03:59:30.994Z,2.53
2023-02-13T04:02:14.894Z,2.46
2023-02-13T04:04:54.294Z,2.46
2023-02-13T04:07:33.412Z,2.41
2023-02-13T04:10:07.467Z,2.38
2023-02-13T04:13:02.484Z,2.34
2023-02-13T04:15:29.410Z,2.35
2023-02-13T04:18:05.811Z,2.32
2023-02-13T04:20:33.229Z,2.34
2023-02-13T04:23:08.658Z,2.31
2023-02-13T04:25:41.853Z,2.30
2023-02-13T04:28:09.014Z,2.31
2023-02-13T04:30:36.107Z,2.28
2023-02-13T04:33:03.232Z,2.26
2023-02-13T04:35:30.337Z,2.22
2023-02-13T04:37:57.331Z,2.24
2023-02-13T04:40:24.492Z,2.21
2023-02-13T04:42:51.453Z,2.18
2023-02-13T04:45:18.682Z,2.17
2023-02-13T04:47:53.149Z,2.12
2023-02-13T04:50:20.564Z,2.10
2023-02-13T04:52:47.746Z,2.10
2023-02-13T04:55:14.695Z,2.10
2023-02-13T04:57:41.714Z,2.08
2023-02-13T05:00:10.339Z,2.09
2023-02-13T05:02:39.294Z,2.09
2023-02-13T05:05:06.896Z,2.11
2023-02-13T05:07:33.913Z,2.13
2023-02-13T05:10:00.850Z,2.17
2023-02-13T05:12:27.843Z,2.18
2023-02-13T05:14:54.906Z,2.22
2023-02-13T05:17:21.865Z,2.24
2023-02-13T05:19:48.809Z,2.24
2023-02-13T05:22:34.292Z,2.29
2023-02-13T05:25:01.255Z,2.29
2023-02-13T05:27:28.220Z,2.29
2023-02-13T05:29:55.265Z,2.25
2023-02-13T05:32:22.185Z,2.20
2023-02-13T05:34:49.193Z,2.18
2023-02-13T05:37:16.231Z,2.14
2023-02-13T05:39:43.286Z,2.08
2023-02-13T05:42:10.838Z,2.06
2023-02-13T05:44:37.850Z,2.03
2023-02-13T05:47:05.567Z,2.03
2023-02-13T05:49:33.347Z,2.00
2023-02-13T05:52:00.290Z,2.05
2023-02-13T05:54:27.336Z,2.08
2023-02-13T05:56:54.320Z,2.12
2023-02-13T05:59:23.926Z,2.12
2023-02-13T06:01:51.129Z,2.16
2023-02-13T06:04:18.224Z,2.18
2023-02-13T06:06:45.764Z,2.18
2023-02-13T06:09:12.911Z,2.15
2023-02-13T06:11:40.006Z,2.16
2023-02-13T06:14:07.003Z,2.12
2023-02-13T06:16:34.861Z,2.09
2023-02-13T06:19:01.928Z,2.05
2023-02-13T06:21:28.922Z,2.05
2023-02-13T06:23:55.863Z,2.08
2023-02-13T06:26:22.841Z,2.16
2023-02-13T06:28:49.804Z,2.21
2023-02-13T06:31:16.889Z,2.28
2023-02-13T06:33:43.943Z,2.34
2023-02-13T06:36:10.893Z,2.39
2023-02-13T06:38:37.904Z,2.47
2023-02-13T06:41:05.104Z,2.54
2023-02-13T06:43:32.114Z,2.61
2023-02-13T06:45:59.386Z,2.67
2023-02-13T06:48:26.436Z,2.74
2023-02-13T06:50:53.457Z,2.80
2023-02-13T06:53:25.040Z,2.84
2023-02-13T06:55:53.808Z,2.92
2023-02-13T06:58:21.863Z,2.98
2023-02-13T07:00:49.537Z,3.06
2023-02-13T07:03:16.538Z,3.13
2023-02-13T07:05:44.665Z,3.23
2023-02-13T07:08:13.314Z,3.32
2023-02-13T07:10:42.134Z,3.42
2023-02-13T07:13:09.962Z,3.51
2023-02-13T07:15:38.287Z,3.62
2023-02-13T07:18:05.740Z,3.70
2023-02-13T07:20:33.659Z,3.77
2023-02-13T07:23:02.148Z,3.86
2023-02-13T07:25:29.825Z,3.96
2023-02-13T07:28:05.261Z,3.98
2023-02-13T07:30:34.051Z,4.08
2023-02-13T07:33:05.250Z,4.10
2023-02-13T07:35:32.585Z,4.15
2023-02-13T07:38:00.997Z,4.21
2023-02-13T07:40:28.359Z,4.27
2023-02-13T07:42:56.256Z,4.34
2023-02-13T07:45:23.303Z,4.35
2023-02-13T07:47:50.243Z,4.42
2023-02-13T07:50:17.448Z,4.48
2023-02-13T07:52:44.433Z,4.55
2023-02-13T07:55:11.951Z,4.62
2023-02-13T07:57:38.975Z,4.69
2023-02-13T08:00:06.568Z,4.76
2023-02-13T08:02:38.782Z,4.85
2023-02-13T08:05:06.211Z,4.94
2023-02-13T08:07:33.721Z,5.03
2023-02-13T08:10:19.181Z,5.11
2023-02-13T08:12:47.498Z,5.24
2023-02-13T08:15:15.107Z,5.33
2023-02-13T08:17:42.128Z,5.44
2023-02-13T08:20:09.744Z,5.50
2023-02-13T08:22:38.071Z,5.60
2023-02-13T08:25:06.738Z,5.69
2023-02-13T08:27:34.142Z,5.79
2023-02-13T08:30:02.025Z,5.86
2023-02-13T08:32:29.228Z,5.94
2023-02-13T08:34:56.205Z,6.05
2023-02-13T08:37:23.206Z,6.14
2023-02-13T08:39:50.374Z,6.24
2023-02-13T08:42:17.416Z,6.35
2023-02-13T08:44:44.917Z,6.43
2023-02-13T08:47:11.959Z,6.55
2023-02-13T08:49:38.916Z,6.61
2023-02-13T08:52:06.043Z,6.72
2023-02-13T08:54:35.795Z,6.83
2023-02-13T08:57:02.790Z,6.92
2023-02-13T08:59:29.762Z,7.01
2023-02-13T09:01:58.057Z,7.12
2023-02-13T09:04:24.835Z,7.27
2023-02-13T09:06:51.881Z,7.36
2023-02-13T09:09:19.434Z,7.49
2023-02-13T09:11:46.484Z,7.56
2023-02-13T09:14:13.484Z,7.66
2023-02-13T09:16:40.514Z,7.73
2023-02-13T09:19:07.510Z,7.86
2023-02-13T09:21:34.630Z,7.97
2023-02-13T09:24:01.580Z,8.13
2023-02-13T09:26:28.579Z,8.25
2023-02-13T09:28:55.530Z,8.39
2023-02-13T09:31:24.593Z,8.59
2023-02-13T09:33:51.821Z,8.71
2023-02-13T09:36:24.353Z,8.90
2023-02-13T09:38:56.033Z,9.08
2023-02-13T09:41:31.033Z,9.24
2023-02-13T09:44:03.291Z,9.28
2023-02-13T09:46:34.623Z,9.57
2023-02-13T09:49:26.822Z,9.81
2023-02-13T09:51:57.537Z,9.93
2023-02-13T09:54:26.847Z,10.08
2023-02-13T09:57:07.437Z,10.26
2023-02-13T09:59:45.482Z,10.42
2023-02-13T10:02:31.702Z,10.67
2023-02-13T10:05:18.067Z,10.77
2023-02-13T10:08:16.704Z,11.00
2023-02-13T10:10:58.759Z,11.14
2023-02-13T10:13:48.187Z,11.36
2023-02-13T10:16:44.678Z,11.51
2023-02-13T10:19:19.579Z,11.78
2023-02-13T10:21:58.788Z,11.85
2023-02-13T10:24:54.511Z,12.01
2023-02-13T10:27:28.545Z,12.13
2023-02-13T10:30:06.419Z,12.27
2023-02-13T10:33:19.313Z,12.36
2023-02-13T10:35:49.639Z,12.55
2023-02-13T10:38:20.557Z,12.65
2023-02-13T10:41:06.903Z,12.78
2023-02-13T10:43:47.730Z,12.79
2023-02-13T10:46:49.867Z,12.83
2023-02-13T10:49:48.472Z,12.77
2023-02-13T10:52:30.563Z,12.83
2023-02-13T10:55:15.696Z,12.86
2023-02-13T10:57:54.961Z,12.57
2023-02-13T11:01:05.450Z,12.98
2023-02-13T11:03:32.456Z,13.13
2023-02-13T11:06:05.965Z,13.24
2023-02-13T11:08:44.668Z,13.12
2023-02-13T11:11:33.093Z,13.19
2023-02-13T11:14:29.148Z,13.49
2023-02-13T11:17:03.063Z,13.49
2023-02-13T11:19:34.329Z,13.49
2023-02-13T11:22:13.703Z,13.46
2023-02-13T11:24:43.054Z,13.51
2023-02-13T11:27:14.087Z,13.78
2023-02-13T11:29:56.284Z,13.81
2023-02-13T11:32:24.959Z,13.97
2023-02-13T11:34:52.499Z,13.98
2023-02-13T11:37:26.326Z,14.12
2023-02-13T11:39:56.223Z,14.14
2023-02-13T11:42:35.466Z,14.26
2023-02-13T11:45:21.252Z,14.30
2023-02-13T11:47:48.444Z,14.44
2023-02-13T11:50:41.065Z,14.51
2023-02-13T11:53:18.983Z,14.71
2023-02-13T11:56:01.030Z,14.98
2023-02-13T11:58:31.110Z,14.84
2023-02-13T12:13:39.179Z,14.95
2023-02-13T12:16:14.474Z,14.90
2023-02-13T12:18:46.706Z,15.05
2023-02-13T12:21:45.597Z,15.05
2023-02-13T12:24:31.711Z,15.18
2023-02-13T12:27:26.358Z,15.18
2023-02-13T12:30:12.157Z,15.57
2023-02-13T12:33:17.278Z,15.85
2023-02-13T12:36:28.050Z,16.10
2023-02-13T12:39:18.167Z,16.13
2023-02-13T12:42:09.787Z,16.36
2023-02-13T12:45:03.278Z,16.67
2023-02-13T12:47:37.228Z,16.93
2023-02-13T12:50:38.394Z,16.99
2023-02-13T12:53:20.758Z,16.86
2023-02-13T12:55:57.418Z,17.28
2023-02-13T12:58:43.199Z,17.44
2023-02-13T13:01:16.236Z,17.47
2023-02-13T13:03:51.047Z,17.74
2023-02-13T13:06:42.707Z,17.96
2023-02-13T13:09:21.734Z,17.98
2023-02-13T13:12:14.005Z,18.38
2023-02-13T13:15:03.546Z,18.56
2023-02-13T13:18:11.501Z,19.49
2023-02-13T13:20:52.341Z,20.11
2023-02-13T13:23:21.797Z,20.51
2023-02-13T13:25:58.027Z,21.15
2023-02-13T13:28:29.879Z,22.21
2023-02-13T13:30:59.186Z,22.99
2023-02-13T13:33:28.597Z,23.57
2023-02-13T13:36:05.241Z,24.15
2023-02-13T13:38:43.998Z,24.60
2023-02-13T13:41:23.066Z,25.03
2023-02-13T13:44:18.062Z,24.83
2023-02-13T13:46:50.856Z,25.77
2023-02-13T13:49:53.987Z,25.89
2023-02-13T13:52:39.852Z,26.07
2023-02-13T13:55:07.178Z,25.82
2023-02-13T13:57:39.654Z,26.38
2023-02-13T14:00:10.504Z,26.06
2023-02-13T14:02:51.381Z,26.65
2023-02-13T14:05:20.399Z,26.05
2023-02-13T14:07:51.131Z,24.70
2023-02-13T14:10:21.137Z,23.38
2023-02-13T14:12:50.380Z,22.13
2023-02-13T14:15:39.054Z,20.72
2023-02-13T14:18:14.608Z,20.04
2023-02-13T14:21:02.111Z,19.32
2023-02-13T14:23:32.174Z,18.63
2023-02-13T14:26:16.355Z,17.53
2023-02-13T14:28:49.463Z,17.02
2023-02-13T14:31:33.520Z,16.63
2023-02-13T14:34:06.343Z,16.10
2023-02-13T14:36:36.733Z,15.69
2023-02-13T14:39:26.033Z,15.11
2023-02-13T14:41:55.831Z,14.96
2023-02-13T14:44:25.517Z,14.58
2023-02-13T14:46:54.723Z,14.52
2023-02-13T14:49:30.947Z,14.23
2023-02-13T14:52:01.925Z,14.02
2023-02-13T14:54:45.801Z,13.88
2023-02-13T14:57:34.664Z,13.69
2023-02-13T15:00:09.281Z,13.42
2023-02-13T15:02:42.855Z,13.30
2023-02-13T15:05:16.557Z,13.01
2023-02-13T15:08:25.204Z,12.81
2023-02-13T15:10:55.159Z,12.70
2023-02-13T15:13:23.735Z,12.53
2023-02-13T15:16:06.480Z,12.48
2023-02-13T15:18:45.273Z,12.29
2023-02-13T15:21:17.290Z,12.20
2023-02-13T15:23:45.463Z,12.03
2023-02-13T15:26:24.108Z,11.87
2023-02-13T15:29:01.726Z,11.70
2023-02-13T15:31:33.947Z,11.68
2023-02-13T15:34:02.086Z,11.54
2023-02-13T15:36:36.241Z,11.48
2023-02-13T15:39:10.471Z,11.36
2023-02-13T15:41:44.137Z,11.28
2023-02-13T15:44:18.835Z,11.23
2023-02-13T15:46:49.859Z,11.14
2023-02-13T15:49:20.572Z,11.05
2023-02-13T15:51:48.865Z,10.92
2023-02-13T15:54:23.743Z,10.80
2023-02-13T15:56:53.614Z,10.73
2023-02-13T15:59:21.588Z,10.62
2023-02-13T16:01:50.871Z,10.54
2023-02-13T16:04:20.834Z,10.46
2023-02-13T16:06:50.565Z,10.33
2023-02-13T16:09:35.580Z,10.24
2023-02-13T16:12:04.327Z,10.15
2023-02-13T16:14:34.964Z,9.98
2023-02-13T16:17:15.851Z,9.85
2023-02-13T16:19:52.590Z,9.74
2023-02-13T16:22:28.394Z,9.58
2023-02-13T16:25:04.319Z,9.45
2023-02-13T16:27:31.505Z,9.31
2023-02-13T16:30:02.507Z,9.24
2023-02-13T16:32:35.340Z,9.08
2023-02-13T16:35:29.164Z,8.94
2023-02-13T16:38:00.706Z,8.85
2023-02-13T16:40:39.757Z,8.73
2023-02-13T16:43:39.749Z,8.67
2023-02-13T16:46:17.953Z,8.55
2023-02-13T16:48:57.096Z,8.44
2023-02-13T16:51:30.464Z,8.35
2023-02-13T16:53:59.490Z,8.24
2023-02-13T16:56:26.869Z,8.16
2023-02-13T16:59:23.078Z,8.08
2023-02-13T17:02:11.370Z,8.00
2023-02-13T17:04:39.513Z,7.93
2023-02-13T17:07:12.848Z,7.90
2023-02-13T17:09:40.034Z,7.84
2023-02-13T17:12:14.877Z,7.76
2023-02-13T17:14:42.406Z,7.71
2023-02-13T17:17:18.692Z,7.67
2023-02-13T17:19:46.200Z,7.61
2023-02-13T17:22:47.711Z,7.59
2023-02-13T17:25:35.548Z,7.52
2023-02-13T17:28:12.411Z,7.37
2023-02-13T17:30:39.678Z,7.39
2023-02-13T17:33:12.564Z,7.35
2023-02-13T17:35:39.812Z,7.31
2023-02-13T17:38:08.548Z,7.26
2023-02-13T17:40:35.907Z,7.19
2023-02-13T17:43:03.696Z,7.18
2023-02-13T17:45:32.862Z,7.16
2023-02-13T17:48:00.047Z,7.14
2023-02-13T17:50:29.104Z,7.08
2023-02-13T17:52:57.327Z,7.03
2023-02-13T17:55:29.440Z,7.02
2023-02-13T17:57:58.266Z,6.95
2023-02-13T18:00:32.246Z,6.98
2023-02-13T18:03:00.693Z,6.94
2023-02-13T18:05:28.470Z,6.96
2023-02-13T18:07:56.077Z,6.89
2023-02-13T18:10:28.721Z,6.70
2023-02-13T18:12:58.487Z,6.54
2023-02-13T18:15:25.571Z,6.41
2023-02-13T18:17:52.534Z,6.41
2023-02-13T18:20:21.072Z,6.41
2023-02-13T18:22:51.968Z,6.38
2023-02-13T18:25:20.952Z,6.35
2023-02-13T18:27:48.759Z,6.33
2023-02-13T18:30:18.685Z,6.30
2023-02-13T18:32:46.357Z,6.29
2023-02-13T18:35:13.373Z,6.28
2023-02-13T18:37:40.466Z,6.22
2023-02-13T18:40:08.660Z,6.17
2023-02-13T18:42:36.308Z,6.09
2023-02-13T18:45:03.934Z,6.05
2023-02-13T18:47:31.167Z,6.10
2023-02-13T18:49:58.225Z,6.03
2023-02-13T18:52:25.206Z,5.98
2023-02-13T18:54:52.393Z,5.93
2023-02-13T18:57:19.363Z,5.89
2023-02-13T18:59:46.403Z,5.79
2023-02-13T19:02:13.653Z,5.78
2023-02-13T19:04:40.888Z,5.74
2023-02-13T19:07:07.851Z,5.66
2023-02-13T19:09:40.243Z,5.64
2023-02-13T19:12:08.433Z,5.62
2023-02-13T19:14:35.398Z,5.56
2023-02-13T19:17:03.707Z,5.54
2023-02-13T19:19:30.663Z,5.48
2023-02-13T19:21:57.911Z,5.55
2023-02-13T19:24:25.015Z,5.51
2023-02-13T19:26:51.979Z,5.46
2023-02-13T19:29:19.161Z,5.47
2023-02-13T19:31:46.364Z,5.46
2023-02-13T19:34:13.477Z,5.47
2023-02-13T19:36:40.476Z,5.45
2023-02-13T19:39:09.398Z,5.40
2023-02-13T19:41:36.508Z,5.43
2023-02-13T19:44:05.518Z,5.44
2023-02-13T19:46:33.090Z,5.46
2023-02-13T19:49:00.595Z,5.44
2023-02-13T19:51:31.587Z,5.46
2023-02-13T19:54:10.421Z,5.46
2023-02-13T19:56:39.339Z,5.42
2023-02-13T19:59:08.119Z,5.41
2023-02-13T20:01:35.143Z,5.38
2023-02-13T20:04:02.205Z,5.38
2023-02-13T20:06:36.127Z,5.35
2023-02-13T20:09:08.238Z,5.31
2023-02-13T20:11:35.322Z,5.30
2023-02-13T20:14:05.528Z,5.30
2023-02-13T20:16:35.261Z,5.26
2023-02-13T20:19:07.146Z,5.17
2023-02-13T20:21:35.134Z,5.12
2023-02-13T20:24:05.465Z,5.06
2023-02-13T20:26:32.758Z,4.93
2023-02-13T20:29:00.460Z,4.82
2023-02-13T20:31:29.629Z,4.73
2023-02-13T20:33:58.065Z,4.66
2023-02-13T20:36:28.233Z,4.62
2023-02-13T20:38:59.780Z,4.53
2023-02-13T20:41:30.118Z,4.51
2023-02-13T20:43:59.404Z,4.47
2023-02-13T20:46:26.825Z,4.37
2023-02-13T20:48:53.867Z,4.44
2023-02-13T20:51:20.803Z,4.42
2023-02-13T20:53:48.302Z,4.42
2023-02-13T20:56:20.902Z,4.40
2023-02-13T20:58:50.740Z,4.39
2023-02-13T21:01:26.728Z,4.39
2023-02-13T21:03:55.237Z,4.38
2023-02-13T21:06:28.457Z,4.40
2023-02-13T21:08:56.166Z,4.39
2023-02-13T21:11:23.518Z,4.36
2023-02-13T21:13:51.259Z,4.31
2023-02-13T21:16:23.841Z,4.26
2023-02-13T21:18:57.280Z,4.23
2023-02-13T21:21:26.443Z,4.21
2023-02-13T21:23:58.382Z,4.17
2023-02-13T21:26:27.121Z,4.11
2023-02-13T21:28:54.546Z,4.09
2023-02-13T21:31:29.559Z,4.06
2023-02-13T21:34:03.326Z,4.07
2023-02-13T21:36:31.151Z,3.85
2023-02-13T21:38:58.446Z,3.95
2023-02-13T21:41:25.637Z,3.95
2023-02-13T21:43:52.905Z,3.87
2023-02-13T21:46:23.203Z,3.86
2023-02-13T21:48:55.488Z,3.89
2023-02-13T21:51:24.056Z,3.89
2023-02-13T21:53:51.887Z,3.85
2023-02-13T21:56:21.873Z,3.86
2023-02-13T21:58:49.709Z,3.85
2023-02-13T22:01:26.894Z,3.87
2023-02-13T22:04:00.928Z,3.86
2023-02-13T22:06:30.491Z,3.83
2023-02-13T22:08:59.345Z,3.81
2023-02-13T22:11:27.167Z,3.78
2023-02-13T22:13:56.804Z,3.77
2023-02-13T22:16:24.409Z,3.76
2023-02-13T22:18:51.453Z,3.76
2023-02-13T22:21:21.563Z,3.77
2023-02-13T22:23:49.232Z,3.79
2023-02-13T22:26:23.528Z,3.79
2023-02-13T22:28:51.177Z,3.81
2023-02-13T22:31:19.175Z,3.82
2023-02-13T22:33:52.361Z,3.82
2023-02-13T22:36:26.086Z,3.80
2023-02-13T22:38:53.696Z,3.77
2023-02-13T22:41:23.508Z,3.77
2023-02-13T22:43:51.458Z,3.72
2023-02-13T22:46:30.368Z,3.71
2023-02-13T22:48:58.187Z,3.64
2023-02-13T22:51:32.389Z,3.65
2023-02-13T22:53:59.915Z,3.64
2023-02-13T22:56:28.437Z,3.61
2023-02-13T22:58:55.764Z,3.62
2023-02-13T23:01:25.124Z,3.56
2023-02-13T23:03:52.676Z,3.53
2023-02-13T23:06:22.090Z,3.52
2023-02-13T23:08:55.174Z,3.47
2023-02-13T23:11:44.322Z,3.42
2023-02-13T23:14:12.302Z,3.36
2023-02-13T23:16:58.649Z,3.33
2023-02-13T23:19:27.809Z,3.28
2023-02-13T23:21:54.849Z,3.28
2023-02-13T23:24:21.983Z,3.21
2023-02-13T23:26:48.928Z,3.18
2023-02-13T23:29:15.935Z,3.14
2023-02-13T23:31:42.999Z,3.10
2023-02-13T23:34:10.108Z,3.07
2023-02-13T23:36:37.045Z,3.05
2023-02-13T23:39:04.121Z,3.04
2023-02-13T23:41:31.081Z,3.04
2023-02-13T23:43:58.091Z,3.01
2023-02-13T23:46:25.151Z,2.99
2023-02-13T23:48:52.261Z,3.00
2023-02-13T23:51:21.138Z,2.98
2023-02-13T23:53:48.133Z,2.96
2023-02-13T23:56:15.353Z,2.92
2023-02-13T23:58:42.367Z,2.92
